Time;durP1;ratioP1;P1;durP2;ratioP2;P2;SDS_P1;SDS_P2;PMS_P1;PMS_P2;Temp;Humidity;BMP_temperature;BMP_pressure;BME280_temperature;BME280_humidity;BME280_pressure;Samples;Min_cycle;Max_cycle;Signal;HPM_P1;HPM_P2
2023/08/16 00:02:59;;;;;;;16.17;10.68;;;;;;;21.22;100.00;100845.53;8234909;28;20049;-59
2023/08/16 00:07:00;;;;;;;23.08;12.75;;;;;;;21.33;100.00;100847.75;8233582;28;20831;-59
2023/08/16 00:11:00;;;;;;;24.40;13.00;;;;;;;21.18;100.00;100853.38;8237018;28;20430;-59
2023/08/16 00:15:01;;;;;;;23.70;14.40;;;;;;;21.09;100.00;100848.22;8234061;28;20051;-60
2023/08/16 00:19:01;;;;;;;23.10;13.65;;;;;;;21.10;100.00;100855.41;8237378;28;20129;-59
2023/08/16 00:23:01;;;;;;;18.90;13.32;;;;;;;21.10;100.00;100855.41;8232429;28;20125;-59
2023/08/16 00:27:03;;;;;;;26.67;14.65;;;;;;;21.04;100.00;100853.44;8237176;28;20050;-59
2023/08/16 00:31:04;;;;;;;20.40;13.18;;;;;;;21.03;100.00;100851.75;8234588;28;20509;-59
2023/08/16 00:35:06;;;;;;;24.25;13.63;;;;;;;20.93;100.00;100848.47;8234085;28;20046;-62
2023/08/16 00:39:07;;;;;;;22.10;14.05;;;;;;;20.76;100.00;100847.91;8235220;28;20041;-63
2023/08/16 00:43:08;;;;;;;20.45;14.15;;;;;;;20.69;100.00;100851.66;8234512;28;20038;-63
2023/08/16 00:47:08;;;;;;;23.33;13.38;;;;;;;20.71;100.00;100844.06;8236001;28;20038;-59
2023/08/16 00:51:10;;;;;;;20.83;12.38;;;;;;;20.72;100.00;100851.25;8234796;28;20469;-59
2023/08/16 00:55:12;;;;;;;20.27;12.07;;;;;;;20.76;100.00;100841.56;8233621;28;20043;-59
2023/08/16 00:59:14;;;;;;;16.02;10.60;;;;;;;20.69;100.00;100846.16;8234932;28;20035;-63
2023/08/16 01:03:15;;;;;;;14.05;9.45;;;;;;;20.71;100.00;100849.56;8236058;28;20124;-63
2023/08/16 01:07:15;;;;;;;16.60;10.27;;;;;;;20.59;100.00;100841.00;8233960;28;20073;-63
2023/08/16 01:11:28;;;;;;;16.02;10.88;;;;;;;20.61;100.00;100838.03;8234974;28;20043;-63
2023/08/16 01:15:32;;;;;;;14.45;9.65;;;;;;;20.49;100.00;100840.47;8233679;28;20039;-64
2023/08/16 01:19:33;;;;;;;14.98;8.95;;;;;;;20.33;100.00;100840.75;8235469;28;20512;-64
2023/08/16 01:24:05;;;;;;;14.80;9.55;;;;;;;20.35;100.00;100832.31;8232325;28;20061;-64
2023/08/16 01:28:06;;;;;;;14.40;9.05;;;;;;;20.44;100.00;100842.13;8234471;28;20515;-63
2023/08/16 01:32:07;;;;;;;13.48;8.25;;;;;;;20.47;100.00;100842.59;8233161;28;20112;-62
2023/08/16 01:36:07;;;;;;;14.75;9.20;;;;;;;20.39;100.00;100850.09;8233815;28;20319;-63
2023/08/16 01:40:09;;;;;;;10.57;7.75;;;;;;;20.37;100.00;100853.03;8239178;28;20038;-63
2023/08/16 01:44:11;;;;;;;15.65;8.48;;;;;;;20.19;100.00;100847.13;8239935;28;20034;-63
2023/08/16 01:48:13;;;;;;;12.73;8.25;;;;;;;20.14;100.00;100840.53;8240696;28;20496;-63
2023/08/16 01:52:13;;;;;;;12.30;8.52;;;;;;;20.15;100.00;100853.19;8244325;28;20114;-64
2023/08/16 01:56:14;;;;;;;16.27;9.00;;;;;;;19.95;100.00;100852.09;8246560;28;20055;-61
2023/08/16 02:00:15;;;;;;;11.57;7.90;;;;;;;19.92;100.00;100841.50;8248180;28;20122;-62
2023/08/16 02:04:28;;;;;;;12.23;7.70;;;;;;;20.04;100.00;100839.97;8389438;27;20390;-62
2023/08/16 02:08:30;;;;;;;9.63;8.32;;;;;;;20.11;100.00;100836.25;8384680;27;20037;-59
2023/08/16 02:12:30;;;;;;;13.20;8.63;;;;;;;20.20;100.00;100834.25;8385980;28;20609;-59
2023/08/16 02:16:31;;;;;;;13.43;7.82;;;;;;;20.12;100.00;100832.47;8385268;27;20037;-62
2023/08/16 02:20:31;;;;;;;14.23;8.15;;;;;;;20.00;100.00;100839.50;8384308;27;20103;-62
2023/08/16 02:24:32;;;;;;;15.98;8.73;;;;;;;20.02;100.00;100847.53;8385938;27;20040;-63
2023/08/16 02:28:33;;;;;;;14.52;9.73;;;;;;;20.12;100.00;100853.56;8383496;27;20040;-62
2023/08/16 02:32:33;;;;;;;16.50;9.45;;;;;;;20.15;100.00;100844.97;8383660;27;20060;-62
2023/08/16 02:36:35;;;;;;;18.63;9.93;;;;;;;20.26;100.00;100849.97;8389372;27;20446;-62
2023/08/16 02:40:36;;;;;;;16.08;9.60;;;;;;;20.37;100.00;100849.44;8400310;27;20041;-61
2023/08/16 02:44:37;;;;;;;14.48;8.70;;;;;;;20.43;100.00;100845.94;8384966;27;20043;-62
2023/08/16 02:48:37;;;;;;;15.60;9.35;;;;;;;20.45;100.00;100849.31;8383305;28;20036;-62
2023/08/16 02:52:38;;;;;;;13.98;8.95;;;;;;;20.43;100.00;100843.19;8382669;27;20131;-62
2023/08/16 02:56:38;;;;;;;14.38;9.30;;;;;;;20.48;100.00;100846.16;8383021;28;20040;-62
2023/08/16 03:00:39;;;;;;;18.42;9.18;;;;;;;20.53;100.00;100843.69;8379762;27;20037;-62
2023/08/16 03:04:40;;;;;;;13.82;8.63;;;;;;;20.58;100.00;100849.44;8383885;27;20128;-62
2023/08/16 03:08:41;;;;;;;11.55;7.78;;;;;;;20.65;100.00;100855.84;8384057;27;20089;-64
2023/08/16 03:12:41;;;;;;;18.67;8.55;;;;;;;20.69;100.00;100865.41;8377339;28;20053;-62
2023/08/16 03:16:42;;;;;;;14.25;9.32;;;;;;;20.69;100.00;100857.16;8360796;28;20045;-63
2023/08/16 03:20:43;;;;;;;23.35;10.32;;;;;;;20.77;100.00;100860.59;8361675;28;20040;-63
2023/08/16 03:24:46;;;;;;;22.30;10.23;;;;;;;20.74;100.00;100854.69;8359744;28;20052;-64
2023/08/16 03:28:48;;;;;;;21.27;10.05;;;;;;;20.79;100.00;100852.16;8359969;28;20044;-64
2023/08/16 03:32:48;;;;;;;17.45;10.10;;;;;;;20.87;100.00;100852.88;8354620;28;20040;-63
2023/08/16 03:36:49;;;;;;;19.65;11.98;;;;;;;20.89;100.00;100858.19;8359627;28;20041;-63
2023/08/16 03:40:49;;;;;;;25.10;12.15;;;;;;;20.92;100.00;100863.28;8361117;28;20054;-63
2023/08/16 03:44:50;;;;;;;22.88;13.13;;;;;;;20.89;100.00;100874.69;8361215;28;20387;-64
2023/08/16 03:48:50;;;;;;;24.95;12.85;;;;;;;20.90;100.00;100877.22;8359081;28;20188;-63
2023/08/16 03:52:51;;;;;;;26.85;12.55;;;;;;;21.01;100.00;100889.59;8358820;28;20045;-63
2023/08/16 03:56:51;;;;;;;24.48;12.13;;;;;;;21.00;100.00;100877.75;8358891;28;20043;-61
2023/08/16 04:00:52;;;;;;;21.08;11.63;;;;;;;20.99;100.00;100880.72;8357807;28;20383;-64
2023/08/16 04:04:53;;;;;;;21.88;12.50;;;;;;;21.01;100.00;100878.59;8360347;28;20041;-63
2023/08/16 04:08:53;;;;;;;20.77;11.52;;;;;;;21.01;100.00;100884.09;8360238;28;20131;-62
2023/08/16 04:12:54;;;;;;;22.45;11.40;;;;;;;20.99;100.00;100883.47;8358492;28;20051;-63
2023/08/16 04:16:56;;;;;;;26.50;11.77;;;;;;;20.93;100.00;100881.47;8359250;28;20045;-59
2023/08/16 04:20:57;;;;;;;27.23;11.10;;;;;;;20.88;100.00;100893.06;8359978;28;20045;-59
2023/08/16 04:24:57;;;;;;;23.38;12.13;;;;;;;20.88;100.00;100889.44;8356498;28;20056;-59
2023/08/16 04:28:58;;;;;;;21.13;12.63;;;;;;;20.88;100.00;100889.44;8359787;28;20037;-59
2023/08/16 04:32:58;;;;;;;19.15;12.05;;;;;;;20.86;100.00;100897.06;8355232;28;20033;-59
2023/08/16 04:36:59;;;;;;;20.35;11.90;;;;;;;20.96;100.00;100898.47;8363312;28;20028;-60
2023/08/16 04:40:59;;;;;;;22.60;11.38;;;;;;;20.96;100.00;100892.97;8358240;28;20036;-60
2023/08/16 04:45:01;;;;;;;19.48;11.75;;;;;;;20.92;100.00;100896.28;8354133;28;20046;-60
2023/08/16 04:49:01;;;;;;;18.85;11.80;;;;;;;20.96;100.00;100892.97;8357051;28;20431;-60
2023/08/16 04:53:02;;;;;;;19.13;11.32;;;;;;;21.00;100.00;100896.16;8351939;28;20037;-61
2023/08/16 04:57:03;;;;;;;17.58;11.82;;;;;;;21.06;100.00;100892.59;8356654;28;20154;-60
2023/08/16 05:01:09;;;;;;;27.15;11.80;;;;;;;21.06;100.00;100889.84;8374153;28;20041;-59
2023/08/16 05:05:11;;;;;;;20.50;11.20;;;;;;;21.08;100.00;100896.03;8353995;28;20136;-60
2023/08/16 05:09:12;;;;;;;18.27;11.35;;;;;;;21.10;100.00;100896.66;8356146;28;20120;-61
2023/08/16 05:13:13;;;;;;;18.17;11.27;;;;;;;21.04;100.00;100889.19;8357672;28;20398;-62
2023/08/16 05:17:14;;;;;;;21.95;11.48;;;;;;;21.02;100.00;100891.31;8358363;28;20036;-62
2023/08/16 05:21:15;;;;;;;18.02;10.68;;;;;;;21.11;100.00;100890.13;8358051;28;20421;-62
2023/08/16 05:25:16;;;;;;;24.75;12.20;;;;;;;21.13;100.00;100893.50;8356261;28;20084;-62
2023/08/16 05:29:16;;;;;;;16.08;10.55;;;;;;;21.05;100.00;100896.41;8352305;28;20037;-61
2023/08/16 05:33:17;;;;;;;21.48;10.20;;;;;;;21.07;100.00;100902.53;8351195;28;20037;-59
2023/08/16 05:37:18;;;;;;;20.90;10.77;;;;;;;21.06;100.00;100909.09;8352075;28;20495;-59
2023/08/16 05:41:18;;;;;;;22.45;11.57;;;;;;;21.01;100.00;100900.59;8353240;28;20411;-58
2023/08/16 05:45:21;;;;;;;19.17;10.15;;;;;;;21.01;100.00;100906.09;8348942;28;20037;-59
2023/08/16 05:49:22;;;;;;;19.38;10.57;;;;;;;21.04;100.00;100909.31;8354775;28;20114;-59
2023/08/16 05:53:22;;;;;;;18.95;10.65;;;;;;;21.07;100.00;100911.66;8346717;28;20088;-58
2023/08/16 05:57:23;;;;;;;15.77;10.00;;;;;;;21.18;100.00;100918.50;8350329;28;20037;-59
2023/08/16 06:01:23;;;;;;;18.48;10.63;;;;;;;21.19;100.00;100920.22;8353480;28;20697;-58
2023/08/16 06:05:24;;;;;;;16.27;10.70;;;;;;;21.11;100.00;100920.38;8354867;28;20102;-58
2023/08/16 06:09:24;;;;;;;22.60;10.85;;;;;;;21.20;100.00;100921.94;8356853;28;20478;-58
2023/08/16 06:13:25;;;;;;;23.75;11.10;;;;;;;21.37;100.00;100928.81;8355727;28;20083;-58
2023/08/16 06:17:25;;;;;;;21.23;11.38;;;;;;;21.30;100.00;100936.19;8355318;28;20041;-58
2023/08/16 06:21:26;;;;;;;21.70;11.30;;;;;;;21.32;100.00;100931.34;8358868;28;20041;-59
2023/08/16 06:25:27;;;;;;;26.63;10.68;;;;;;;21.33;100.00;100930.28;8356086;28;20319;-58
2023/08/16 06:29:28;;;;;;;17.67;9.90;;;;;;;21.44;100.00;100932.50;8355366;28;20120;-59
2023/08/16 06:33:30;;;;;;;21.73;10.88;;;;;;;21.44;100.00;100939.88;8354615;28;20095;-58
2023/08/16 06:37:31;;;;;;;19.20;10.45;;;;;;;21.55;100.00;100942.06;8355708;28;20355;-63
2023/08/16 06:41:32;;;;;;;17.73;10.40;;;;;;;21.65;100.00;100948.91;8356653;28;20491;-63
2023/08/16 06:45:32;;;;;;;13.80;9.23;;;;;;;21.77;100.00;100952.84;8356155;28;20474;-63
2023/08/16 06:49:33;;;;;;;17.63;9.95;;;;;;;21.75;100.00;100954.97;8358505;28;20040;-63
2023/08/16 06:53:33;;;;;;;20.45;9.90;;;;;;;21.74;100.00;100950.47;8360956;28;20039;-63
2023/08/16 06:57:34;;;;;;;18.42;9.48;;;;;;;21.70;100.00;100951.06;8357261;28;20040;-63
2023/08/16 07:01:35;;;;;;;20.10;9.68;;;;;;;21.73;100.00;100951.50;8364524;28;20036;-63
2023/08/16 07:05:35;;;;;;;16.92;9.32;;;;;;;21.84;100.00;100963.91;8360492;28;20087;-63
2023/08/16 07:09:36;;;;;;;15.25;8.80;;;;;;;21.82;100.00;100954.97;8361741;28;20120;-63
2023/08/16 07:13:36;;;;;;;15.93;9.30;;;;;;;21.72;100.00;100960.84;8362438;28;20037;-62
2023/08/16 07:17:37;;;;;;;18.40;9.63;;;;;;;21.80;100.00;100957.94;8360790;28;20341;-63
2023/08/16 07:21:37;;;;;;;16.25;9.45;;;;;;;22.01;100.00;100960.59;8359702;28;20033;-63
2023/08/16 07:25:38;;;;;;;18.67;9.93;;;;;;;22.15;100.00;100954.13;8358958;28;20090;-63
2023/08/16 07:29:38;;;;;;;27.95;13.48;;;;;;;22.39;100.00;100953.59;8360329;28;20421;-63
2023/08/16 07:33:40;;;;;;;32.97;14.63;;;;;;;22.45;100.00;100955.50;8357602;28;20153;-63
2023/08/16 07:37:40;;;;;;;27.85;14.20;;;;;;;22.40;100.00;100952.53;8358253;28;20041;-62
2023/08/16 07:41:41;;;;;;;30.58;16.95;;;;;;;22.40;100.00;100952.53;8359230;28;20040;-63
2023/08/16 07:45:41;;;;;;;20.33;11.73;;;;;;;22.46;100.00;100954.47;8360163;28;20056;-62
2023/08/16 07:49:42;;;;;;;25.05;11.35;;;;;;;22.45;100.00;100957.41;8361900;28;20037;-63
2023/08/16 07:53:42;;;;;;;22.00;12.30;;;;;;;22.26;100.00;100966.47;8358787;28;20091;-62
2023/08/16 07:57:43;;;;;;;18.15;9.88;;;;;;;22.19;100.00;100974.69;8359521;28;20474;-63
2023/08/16 08:01:43;;;;;;;23.40;9.85;;;;;;;22.18;100.00;100983.16;8356806;28;20055;-63
2023/08/16 08:05:44;;;;;;;19.45;9.77;;;;;;;22.21;100.00;100989.13;8360530;28;20126;-63
2023/08/16 08:09:44;;;;;;;14.73;8.85;;;;;;;22.36;100.00;100991.72;8358642;28;20049;-63
2023/08/16 08:13:44;;;;;;;20.95;11.13;;;;;;;22.29;100.00;100988.94;8358535;28;20183;-63
2023/08/16 08:17:46;;;;;;;16.75;10.77;;;;;;;22.52;100.00;100989.50;8359403;28;20048;-64
2023/08/16 08:21:46;;;;;;;21.20;12.45;;;;;;;22.62;100.00;100981.69;8360316;28;20044;-63
2023/08/16 08:25:47;;;;;;;22.30;12.38;;;;;;;22.69;100.00;100977.03;8360309;28;20132;-63
2023/08/16 08:29:47;;;;;;;22.17;12.00;;;;;;;22.75;100.00;100978.94;8360233;28;20033;-63
2023/08/16 08:33:47;;;;;;;20.30;11.57;;;;;;;22.80;100.00;100987.47;8354437;28;20053;-63
2023/08/16 08:37:48;;;;;;;22.40;12.13;;;;;;;23.04;100.00;101000.66;8359901;28;20550;-62
2023/08/16 08:41:48;;;;;;;23.27;11.13;;;;;;;23.27;100.00;100996.69;8357911;28;20314;-63
2023/08/16 08:45:50;;;;;;;20.08;11.23;;;;;;;23.32;100.00;100991.41;8357884;28;20102;-63
2023/08/16 08:49:52;;;;;;;24.08;10.85;;;;;;;23.30;100.00;100996.28;8359385;28;20417;-63
2023/08/16 08:53:52;;;;;;;24.60;12.60;;;;;;;23.21;100.00;100999.19;8355238;28;20033;-63
2023/08/16 08:57:59;;;;;;;22.10;12.15;;;;;;;23.21;100.00;100999.19;8359468;28;20044;-58
2023/08/16 09:02:01;;;;;;;23.02;11.20;;;;;;;23.19;100.00;100994.94;8354687;28;20034;-59
2023/08/16 09:06:03;;;;;;;25.40;13.75;;;;;;;23.17;100.00;101014.47;8358674;28;20441;-58
2023/08/16 09:10:06;;;;;;;30.75;16.92;;;;;;;23.04;100.00;101005.31;8356961;28;20037;-58
2023/08/16 09:14:08;;;;;;;35.33;17.20;;;;;;;23.17;100.00;100997.06;8352542;28;20053;-58
2023/08/16 09:18:12;;;;;;;38.22;17.25;;;;;;;23.23;100.00;101006.44;8358643;28;20033;-59
2023/08/16 09:22:13;;;;;;;29.00;17.50;;;;;;;23.19;100.00;101004.09;8356370;28;20033;-59
2023/08/16 09:26:17;;;;;;;29.75;17.08;;;;;;;23.23;100.00;101011.94;8358548;28;20103;-58
2023/08/16 09:30:18;;;;;;;27.60;17.05;;;;;;;23.27;100.00;101008.59;8353130;28;20454;-58
2023/08/16 09:34:20;;;;;;;32.92;17.45;;;;;;;23.42;100.00;101000.09;8359948;28;20041;-59
2023/08/16 09:38:21;;;;;;;38.13;19.15;;;;;;;23.49;100.00;100995.41;8356134;28;20119;-58
2023/08/16 09:42:33;;;;;;;30.15;17.67;;;;;;;23.62;100.00;100995.41;8356408;28;20045;-58
2023/08/16 09:46:35;;;;;;;35.60;20.23;;;;;;;23.64;100.00;101004.34;8357744;28;20044;-58
2023/08/16 09:50:36;;;;;;;36.58;21.10;;;;;;;23.76;100.00;101008.16;8355874;28;20033;-58
2023/08/16 09:54:37;;;;;;;37.05;20.13;;;;;;;23.84;100.00;101010.69;8355293;28;20059;-61
2023/08/16 09:58:37;;;;;;;38.22;21.58;;;;;;;23.66;100.00;101010.50;8355839;28;20037;-59
2023/08/16 10:02:38;;;;;;;36.58;21.52;;;;;;;23.58;100.00;100996.91;8353221;28;20037;-58
2023/08/16 10:06:39;;;;;;;33.67;21.92;;;;;;;23.61;100.00;100994.59;8357272;28;20040;-58
2023/08/16 10:10:41;;;;;;;19.73;12.77;;;;;;;23.60;100.00;100998.38;8352749;28;20383;-58
2023/08/16 10:14:41;;;;;;;17.80;11.75;;;;;;;23.47;100.00;101000.28;8354994;28;20154;-59
2023/08/16 10:18:43;;;;;;;24.67;12.43;;;;;;;23.43;100.00;100999.88;8357157;28;20038;-58
2023/08/16 10:22:48;;;;;;;18.67;11.57;;;;;;;23.60;100.00;100997.56;8362740;28;20036;-57
2023/08/16 10:26:50;;;;;;;20.08;13.05;;;;;;;23.65;100.00;100995.84;8361889;28;20425;-59
2023/08/16 10:30:53;;;;;;;26.42;16.33;;;;;;;23.95;100.00;100994.34;8395190;28;20052;-58
2023/08/16 10:34:56;;;;;;;24.00;15.83;;;;;;;24.30;100.00;100995.72;8361945;28;20048;-60
2023/08/16 10:38:56;;;;;;;28.27;17.58;;;;;;;24.36;99.82;101000.38;8361974;28;20064;-58
2023/08/16 10:42:59;;;;;;;26.10;16.80;;;;;;;24.80;100.00;101007.88;8361076;28;20033;-58
2023/08/16 10:47:00;;;;;;;30.33;17.55;;;;;;;24.55;98.46;101001.38;8361513;28;20041;-58
2023/08/16 10:51:04;;;;;;;31.05;17.25;;;;;;;24.71;98.53;100999.00;8361884;28;20044;-59
2023/08/16 10:55:05;;;;;;;28.48;17.58;;;;;;;24.93;96.84;100991.19;8359358;28;20033;-58
2023/08/16 10:59:07;;;;;;;24.23;13.77;;;;;;;25.95;93.94;100986.94;8361718;28;20312;-59
2023/08/16 11:03:18;;;;;;;27.80;16.27;;;;;;;25.56;91.20;100981.81;8364779;28;20450;-59
2023/08/16 11:07:19;;;;;;;31.60;17.63;;;;;;;26.08;88.71;100986.88;8360303;28;20036;-58
2023/08/16 11:11:21;;;;;;;26.63;18.27;;;;;;;26.39;86.75;100989.47;8361669;28;20043;-58
2023/08/16 11:15:21;;;;;;;32.58;18.23;;;;;;;26.55;87.22;100983.28;8362370;28;20036;-58
2023/08/16 11:19:22;;;;;;;27.10;18.40;;;;;;;27.63;80.62;100975.72;8360557;28;20090;-58
2023/08/16 11:23:23;;;;;;;28.48;17.42;;;;;;;28.18;78.98;100979.81;8360829;28;20050;-59
2023/08/16 11:27:24;;;;;;;27.15;18.15;;;;;;;27.66;79.75;100976.06;8360019;28;20051;-59
2023/08/16 11:31:25;;;;;;;31.33;19.25;;;;;;;27.31;81.02;100972.41;8359518;28;20446;-59
2023/08/16 11:35:26;;;;;;;28.70;18.42;;;;;;;26.60;83.87;100980.63;8358823;28;20541;-58
2023/08/16 11:39:27;;;;;;;31.50;18.48;;;;;;;26.16;86.69;100967.13;8359597;28;20458;-59
2023/08/16 11:43:29;;;;;;;27.42;16.67;;;;;;;26.17;87.74;100968.81;8361061;28;20041;-60
2023/08/16 11:47:30;;;;;;;24.42;17.52;;;;;;;26.20;87.78;100961.97;8360604;28;20091;-59
2023/08/16 11:51:30;;;;;;;28.02;18.55;;;;;;;26.16;88.13;100956.03;8358396;28;20073;-58
2023/08/16 11:55:31;;;;;;;27.42;16.90;;;;;;;25.94;89.03;100968.63;8359441;28;20517;-59
2023/08/16 11:59:31;;;;;;;26.92;17.73;;;;;;;25.96;87.65;100966.50;8359401;28;20069;-59
2023/08/16 12:03:33;;;;;;;21.45;15.73;;;;;;;26.12;89.29;100971.44;8355403;28;20107;-59
2023/08/16 12:07:42;;;;;;;23.23;16.25;;;;;;;25.99;88.60;100971.59;8360405;28;20091;-59
2023/08/16 12:11:42;;;;;;;24.30;16.38;;;;;;;25.94;89.34;100968.63;8356542;28;20044;-59
2023/08/16 12:15:43;;;;;;;23.13;15.60;;;;;;;26.24;87.70;100958.50;8358776;28;20041;-60
2023/08/16 12:19:44;;;;;;;22.38;16.73;;;;;;;26.62;86.18;100956.34;8358508;28;20047;-60
2023/08/16 12:23:46;;;;;;;22.60;14.73;;;;;;;26.58;85.94;100946.75;8355806;28;20041;-58
2023/08/16 12:27:46;;;;;;;26.23;15.35;;;;;;;26.71;84.33;100941.06;8358268;28;20046;-64
2023/08/16 12:31:47;;;;;;;24.20;16.05;;;;;;;26.89;84.09;100944.88;8356336;28;20083;-59
2023/08/16 12:35:47;;;;;;;23.25;14.93;;;;;;;26.62;83.67;100939.69;8359801;28;20036;-59
2023/08/16 12:39:48;;;;;;;18.02;13.50;;;;;;;26.58;85.16;100934.81;8358185;28;20037;-59
2023/08/16 12:43:48;;;;;;;24.83;13.73;;;;;;;26.50;84.53;100930.44;8358384;28;20040;-59
2023/08/16 12:47:50;;;;;;;21.13;14.93;;;;;;;26.71;84.02;100929.94;8336778;28;20037;-60
2023/08/16 12:51:50;;;;;;;21.13;13.40;;;;;;;27.14;82.32;100904.72;8352118;28;20041;-60
2023/08/16 12:55:50;;;;;;;22.45;15.45;;;;;;;27.33;80.82;100908.28;8357677;28;20063;-59
2023/08/16 12:59:51;;;;;;;26.25;15.73;;;;;;;27.28;81.03;100922.03;8354646;28;20068;-59
2023/08/16 13:03:51;;;;;;;22.73;13.98;;;;;;;27.40;81.60;100914.56;8352470;28;20556;-59
2023/08/16 13:07:52;;;;;;;25.50;16.92;;;;;;;27.41;80.83;100905.16;8355260;28;20423;-60
2023/08/16 13:11:52;;;;;;;22.67;15.05;;;;;;;27.33;81.26;100914.69;8354487;28;20052;-59
2023/08/16 13:15:53;;;;;;;22.70;16.42;;;;;;;27.29;80.49;100912.63;8355156;28;20095;-59
2023/08/16 13:19:53;;;;;;;19.77;16.23;;;;;;;27.44;78.88;100910.22;8356251;28;20449;-60
2023/08/16 13:23:54;;;;;;;24.88;14.82;;;;;;;27.61;79.25;100902.84;8359072;28;20092;-59
2023/08/16 13:27:54;;;;;;;23.92;13.88;;;;;;;27.43;80.75;100902.97;8356525;28;20102;-59
2023/08/16 13:31:56;;;;;;;18.57;13.07;;;;;;;27.33;80.88;100902.72;8351740;28;20100;-59
2023/08/16 13:35:58;;;;;;;18.13;12.75;;;;;;;27.26;80.34;100902.00;8354069;28;20687;-59
2023/08/16 13:39:58;;;;;;;16.88;12.23;;;;;;;27.31;82.17;100899.34;8354417;28;20036;-64
2023/08/16 13:43:59;;;;;;;19.08;13.82;;;;;;;27.35;82.10;100893.06;8353624;28;20048;-63
2023/08/16 13:47:59;;;;;;;26.98;15.38;;;;;;;27.43;81.06;100886.28;8355527;28;20065;-63
2023/08/16 13:52:00;;;;;;;21.65;13.40;;;;;;;27.61;81.32;100883.41;8351323;28;20037;-63
2023/08/16 13:56:01;;;;;;;19.65;12.95;;;;;;;27.61;79.04;100880.63;8355324;28;20714;-64
2023/08/16 14:00:02;;;;;;;18.75;11.23;;;;;;;27.83;78.56;100870.56;8354231;28;20400;-63
2023/08/16 14:04:24;;;;;;;16.33;11.80;;;;;;;27.69;77.80;100885.81;8333927;27;20389;-63
2023/08/16 14:08:25;;;;;;;14.25;11.30;;;;;;;27.54;78.73;100883.50;8334528;28;20037;-63
2023/08/16 14:12:26;;;;;;;15.38;10.70;;;;;;;27.47;79.00;100870.84;8332948;28;20095;-62
2023/08/16 14:16:26;;;;;;;20.90;12.90;;;;;;;27.63;77.37;100882.06;8331717;28;20045;-63
2023/08/16 14:20:27;;;;;;;17.08;10.98;;;;;;;27.67;78.56;100857.41;8330613;28;20379;-63
2023/08/16 14:24:28;;;;;;;18.17;11.82;;;;;;;27.64;78.89;100882.91;8331229;28;20710;-63
2023/08/16 14:28:29;;;;;;;16.83;11.25;;;;;;;27.56;79.47;100883.28;8310327;28;20042;-62
2023/08/16 14:32:29;;;;;;;15.07;9.95;;;;;;;27.45;79.95;100885.00;8324022;28;20530;-63
2023/08/16 14:36:29;;;;;;;16.45;10.40;;;;;;;27.51;79.08;100872.91;8330239;28;20072;-63
2023/08/16 15:00:16;;;;;;;20.83;12.60;;;;;;;25.97;87.91;100889.72;8344270;27;20414;-60
2023/08/16 15:04:17;;;;;;;21.15;12.20;;;;;;;25.98;88.64;100875.66;8347694;28;20392;-59
2023/08/16 15:08:18;;;;;;;18.17;11.52;;;;;;;25.97;88.11;100873.09;8348105;28;20064;-60
2023/08/16 15:12:19;;;;;;;20.42;11.45;;;;;;;25.79;88.96;100867.56;8355881;28;20032;-59
2023/08/16 15:16:20;;;;;;;14.75;11.80;;;;;;;25.79;89.02;100853.69;8349027;28;20589;-60
2023/08/16 15:20:20;;;;;;;20.13;10.45;;;;;;;25.89;89.42;100849.31;8343761;28;20034;-59
2023/08/16 15:24:21;;;;;;;14.07;10.40;;;;;;;26.01;88.31;100858.56;8348916;28;20037;-62
2023/08/16 15:28:21;;;;;;;14.73;10.70;;;;;;;26.36;87.34;100851.28;8346753;28;20120;-62
2023/08/16 15:32:24;;;;;;;28.63;22.10;;;;;;;26.51;86.37;100851.69;8343194;28;20041;-59
2023/08/16 15:42:12;;;;;;;18.05;10.82;;;;;;;25.95;88.39;100839.25;8315494;28;20493;-62
2023/08/16 17:26:54;;;;;;;16.65;8.10;;;;;;;24.04;100.00;100796.88;8301097;27;20405;-61
2023/08/16 17:30:55;;;;;;;12.20;7.85;;;;;;;23.99;99.83;100790.31;8311322;28;20065;-60
2023/08/16 17:34:55;;;;;;;11.80;7.88;;;;;;;23.97;100.00;100804.34;8307416;28;20041;-59
2023/08/16 17:38:56;;;;;;;10.48;7.75;;;;;;;23.96;100.00;100799.03;8311001;28;20052;-60
2023/08/16 17:42:57;;;;;;;14.15;8.18;;;;;;;23.91;100.00;100804.38;8298376;28;20071;-60
2023/08/16 17:46:57;;;;;;;9.40;7.10;;;;;;;23.89;100.00;100806.47;8296826;28;20562;-59
2023/08/16 17:50:58;;;;;;;7.78;6.50;;;;;;;23.83;100.00;100805.47;8296309;28;20034;-62
2023/08/16 17:54:59;;;;;;;10.68;6.85;;;;;;;23.81;100.00;100803.97;8297239;28;20119;-62
2023/08/16 17:58:59;;;;;;;8.57;6.22;;;;;;;23.78;100.00;100801.66;8296713;28;20045;-62
2023/08/16 18:03:00;;;;;;;9.85;6.75;;;;;;;23.71;100.00;100809.09;8299885;28;20454;-62
2023/08/16 18:07:00;;;;;;;10.82;6.80;;;;;;;23.68;100.00;100823.34;8308450;28;20037;-63
2023/08/16 18:11:01;;;;;;;12.13;7.43;;;;;;;23.69;100.00;100825.91;8294668;28;20033;-63
2023/08/16 18:15:01;;;;;;;11.30;6.75;;;;;;;23.68;100.00;100828.88;8295454;28;20201;-63
2023/08/16 18:19:02;;;;;;;9.57;5.75;;;;;;;23.71;100.00;100836.72;8298054;28;20037;-61
2023/08/16 18:23:03;;;;;;;9.07;6.07;;;;;;;23.69;100.00;100849.91;8293666;28;20485;-61
2023/08/16 18:27:03;;;;;;;9.80;5.68;;;;;;;23.68;100.00;100850.97;8297233;28;20041;-63
2023/08/16 18:31:06;;;;;;;8.65;6.45;;;;;;;23.62;100.00;100851.84;8296052;28;20038;-62
2023/08/16 18:35:07;;;;;;;8.88;5.93;;;;;;;23.66;100.00;100853.13;8291220;28;20060;-62
2023/08/16 18:39:07;;;;;;;8.48;5.50;;;;;;;23.66;100.00;100842.06;8272317;28;20045;-61
2023/08/16 18:43:08;;;;;;;12.75;5.88;;;;;;;23.64;100.00;100849.72;8271363;28;20048;-62
2023/08/16 18:47:08;;;;;;;11.02;6.25;;;;;;;23.63;100.00;100842.50;8266553;28;20590;-61
2023/08/16 18:51:09;;;;;;;13.55;6.40;;;;;;;23.34;100.00;100849.38;8286348;28;20074;-61
2023/08/16 18:55:09;;;;;;;13.95;6.88;;;;;;;23.03;100.00;100857.44;8276459;28;20038;-58
2023/08/16 18:59:10;;;;;;;10.13;7.30;;;;;;;22.67;100.00;100841.31;8278086;28;20186;-62
2023/08/16 19:03:10;;;;;;;20.02;8.90;;;;;;;22.39;100.00;100828.72;8301789;28;20053;-61
2023/08/16 19:07:11;;;;;;;11.45;8.43;;;;;;;22.19;100.00;100831.44;8277137;28;20108;-61
2023/08/16 19:11:12;;;;;;;13.68;8.85;;;;;;;22.07;100.00;100815.72;8281256;28;20048;-64
2023/08/16 19:15:12;;;;;;;18.35;9.50;;;;;;;21.93;100.00;100809.34;8288245;28;20049;-63
2023/08/16 19:19:13;;;;;;;12.77;9.75;;;;;;;21.88;100.00;100800.84;8281684;28;20092;-61
2023/08/16 19:23:13;;;;;;;13.18;8.85;;;;;;;21.83;100.00;100797.84;8271535;28;22601;-61
2023/08/16 19:27:15;;;;;;;15.77;9.48;;;;;;;21.82;100.00;100796.16;8280330;28;20120;-61
2023/08/16 19:31:16;;;;;;;14.15;8.63;;;;;;;21.81;100.00;100794.47;8266568;28;20070;-59
2023/08/16 19:35:17;;;;;;;11.77;9.07;;;;;;;21.77;100.00;100782.16;8263172;28;20413;-58
2023/08/16 19:39:17;;;;;;;11.57;8.48;;;;;;;21.69;100.00;100778.72;8282386;28;20034;-59
2023/08/16 19:43:19;;;;;;;12.30;9.00;;;;;;;21.58;100.00;100782.91;8282839;28;20077;-59
2023/08/16 19:47:20;;;;;;;11.45;7.93;;;;;;;21.58;100.00;100798.56;8282738;28;20401;-60
2023/08/16 19:51:24;;;;;;;13.15;8.63;;;;;;;21.53;100.00;100804.66;8279843;28;20567;-59
2023/08/16 19:55:24;;;;;;;15.10;8.52;;;;;;;21.39;100.00;100783.66;8285885;28;20044;-59
2023/08/16 19:59:25;;;;;;;12.02;8.93;;;;;;;21.45;100.00;100788.34;8300222;28;20124;-59
2023/08/16 20:03:26;;;;;;;16.70;8.88;;;;;;;21.46;100.00;100792.78;8265204;28;20077;-60
2023/08/16 20:07:26;;;;;;;14.95;8.00;;;;;;;21.46;100.00;100795.53;8275152;28;20076;-60
2023/08/16 20:11:27;;;;;;;17.73;9.45;;;;;;;21.44;100.00;100808.69;8312067;28;20544;-60
2023/08/16 20:15:30;;;;;;;12.68;8.57;;;;;;;21.45;100.00;100817.75;8274295;28;20049;-60
2023/08/16 20:19:30;;;;;;;16.80;9.10;;;;;;;21.40;100.00;100834.88;8286748;28;20229;-61